Zuiderdam — PBIG — position and weather

sailwx.info

Track history (hours):
 
Tides and Currents Weather Stations Pressure Air Temp Water Temp Dewpoint Dewpoint Depression Visibility Wind Speed Wind Dir Waves Ship Positions

Zuiderdam (Netherlands)

Operator: Holland America Line

Last reported at 2017-Aug-20 13:31 UTC. Time now 2017-Aug-20 13:39 UTC.
Position N 55°58' E 016°12'.

Type: Passenger vessel. MMSI: 245304000.

Date/timePositionNaut miles runAvg speedWind from/ knotsBaromVisibWave heightAir tempDewpointWater temp
2017-Aug-20 13:31N 55°58' E 016°12'714.1
2017-Aug-20 13:00N 56°02' E 016°23'714.1
2017-Aug-20 12:31N 56°06' E 016°34'612.4
2017-Aug-20 12:00N 56°09' E 016°43'714.3
2017-Aug-20 11:30N 56°15' E 016°50'815.2
2017-Aug-20 11:00N 56°23' E 016°54'815.2
2017-Aug-20 10:30N 56°30' E 016°59'13514.2
2017-Aug-20 01:00N 58°30' E 018°54'1919.1 230 / 201010.010.8 16.712.617.0
2017-Aug-20 00:00N 58°48' E 019°06'1015.8 220 / 201009.010.8 17.112.617.0
2017-Aug-19 23:21N 58°56' E 019°18'514.3
2017-Aug-19 23:00N 59°00' E 019°23'714.2
2017-Aug-19 22:31N 59°06' E 019°30'714.0
2017-Aug-19 22:01N 59°12' E 019°37'137.8
2017-Aug-19 22:00N 59°12' E 019°36'815.6 260 / 231008.010.8 17.211.517.0
2017-Aug-19 21:30N 59°18' E 019°44'714.1
2017-Aug-19 21:00N 59°24' E 019°51'714.1
2017-Aug-19 20:31N 59°31' E 019°57'714.2
2017-Aug-19 20:00N 59°38' E 019°56'816.8
2017-Aug-19 19:31N 59°44' E 019°45'713.1
2017-Aug-19 19:00N 59°48' E 019°34'714.2
2017-Aug-19 18:30N 59°46' E 019°21'816.3
2017-Aug-19 18:01N 59°43' E 019°06'714.0
2017-Aug-19 17:31N 59°39' E 018°54'611.7
2017-Aug-19 17:01N 59°36' E 018°45'611.5
2017-Aug-19 16:31N 59°33' E 018°35'510.2
2017-Aug-19 16:01N 59°30' E 018°28'510.1
2017-Aug-19 15:30N 59°25' E 018°25'3 6.0
2017-Aug-19 15:00N 59°22' E 018°23'9 9.1
2017-Aug-19 14:01N 59°19' E 018°06'0 0.0
2017-Aug-19 02:28N 59°19' E 018°06'0 0.0
2017-Aug-18 07:10N 59°19' E 018°06'0 0.0
2017-Aug-18 06:46N 59°19' E 018°06'0 0.0
2017-Aug-18 06:28N 59°19' E 018°06'0 0.4
2017-Aug-18 06:00N 59°19' E 018°07'4 7.4
2017-Aug-18 05:31N 59°21' E 018°13'510.1
2017-Aug-18 05:00N 59°22' E 018°23'107428.9
2017-Aug-18 05:00N 59°12' E 018°24'1224.5 160 / 151013.010.8 16.515.419.0
2017-Aug-18 04:30N 59°24' E 018°26'4 7.4
2017-Aug-18 04:01N 59°28' E 018°26'510.5
2017-Aug-18 03:30N 59°32' E 018°32'5 9.7
2017-Aug-18 03:00N 59°35' E 018°40'5382.9
2017-Aug-18 03:00N 59°30' E 018°36'1021.4 160 / 151014.010.8 16.515.419.0
2017-Aug-18 02:30N 59°37' E 018°50'5 9.4
2017-Aug-18 02:00N 59°40' E 018°57'816.2
2017-Aug-18 01:30N 59°44' E 019°12'713.7
2017-Aug-18 01:00N 59°47' E 019°24'815.6
2017-Aug-18 00:30N 59°50' E 019°38'815.9
2017-Aug-18 00:00N 59°45' E 019°51'3223.1
2017-Aug-18 00:00N 59°42' E 019°54'611.4 220 / 131014.010.8 17.115.118.0
2017-Aug-17 23:30N 59°39' E 020°03'816.8
2017-Aug-17 23:00N 59°37' E 020°19'917.8
2017-Aug-17 22:30N 59°36' E 020°36'917.9
2017-Aug-17 22:00N 59°34' E 020°54'917.9
2017-Aug-17 21:31N 59°32' E 021°11'1019.9
2017-Aug-17 21:00N 59°30' E 021°30'0 9.5
2017-Aug-17 21:00N 59°30' E 021°30'816.6 240 / 91015.010.8 17.215.218.0
2017-Aug-17 20:30N 59°28' E 021°46'918.8
2017-Aug-17 20:00N 59°27' E 022°04'917.0
2017-Aug-17 19:30N 59°27' E 022°21'917.2
2017-Aug-17 19:00N 59°31' E 022°35'1020.0
2017-Aug-17 18:30N 59°34' E 022°55'815.8
2017-Aug-17 18:00N 59°36' E 023°10'1019.2
2017-Aug-17 17:30N 59°38' E 023°28'1019.1
2017-Aug-17 17:00N 59°41' E 023°46'816.0
2017-Aug-17 16:30N 59°43' E 024°01'918.9
2017-Aug-17 16:01N 59°47' E 024°19'917.2
2017-Aug-17 15:31N 59°50' E 024°35'918.1
2017-Aug-17 15:00N 59°57' E 024°47'713.9
2017-Aug-17 14:31N 60°03' E 024°54'612.3
2017-Aug-17 14:00N 60°09' E 024°54'0 0.1
2017-Aug-17 10:26N 60°09' E 024°55'0 0.0
2017-Aug-17 09:49N 60°09' E 024°55'0 0.0
2017-Aug-17 09:25N 60°09' E 024°55'0 0.0
2017-Aug-17 09:00N 60°09' E 024°55'0 0.0
2017-Aug-17 08:30N 60°09' E 024°55'0 0.0
2017-Aug-17 08:00N 60°09' E 024°55'0 0.0
2017-Aug-17 07:25N 60°09' E 024°55'0 0.0
2017-Aug-17 07:00N 60°09' E 024°55'0 0.0
2017-Aug-17 06:30N 60°09' E 024°55'0 0.0
2017-Aug-17 06:00N 60°09' E 024°55'0 0.0
2017-Aug-17 05:30N 60°09' E 024°55'0 0.0
2017-Aug-17 05:00N 60°09' E 024°55'0 0.0
2017-Aug-17 04:30N 60°09' E 024°55'0 0.0
2017-Aug-17 04:00N 60°09' E 024°55'2 4.0
2017-Aug-17 03:31N 60°07' E 024°54'612.9
2017-Aug-17 03:00N 60°01' E 024°56'713.8
2017-Aug-17 02:30N 59°57' E 025°08'713.7
2017-Aug-17 02:01N 59°54' E 025°20'713.9
2017-Aug-17 01:31N 59°55' E 025°34'714.0
2017-Aug-17 01:01N 59°56' E 025°48'714.0
2017-Aug-17 00:31N 59°57' E 026°01'714.9
2017-Aug-17 00:00N 59°60' E 026°16'180.3
2017-Aug-17 00:00N 60°00' E 026°18'612.2 150 / 161018.010.8 17.815.618.0
2017-Aug-16 23:31N 60°01' E 026°30'714.5
2017-Aug-16 23:00N 60°01' E 026°44'2122.8
2017-Aug-16 23:00N 60°00' E 026°48'511.3 160 / 131019.010.8 17.915.718.0
2017-Aug-16 22:30N 59°59' E 026°59'714.1
2017-Aug-16 22:01N 60°02' E 027°12'715.0
2017-Aug-16 21:31N 60°06' E 027°24'918.9
2017-Aug-16 21:01N 60°11' E 027°40'1019.1
2017-Aug-16 20:30N 60°11' E 027°60'918.0
2017-Aug-16 20:01N 60°08' E 028°17'917.7
2017-Aug-16 19:31N 60°03' E 028°32'714.6
2017-Aug-16 19:00N 60°03' E 028°46'917.6
2017-Aug-16 18:30N 60°03' E 029°04'917.2
2017-Aug-16 18:00N 60°02' E 029°21'611.7
2017-Aug-16 17:31N 60°01' E 029°33'612.6
2017-Aug-16 17:00N 59°59' E 029°45'5 9.7
2017-Aug-16 16:30N 59°57' E 029°53'510.6
2017-Aug-16 16:00N 59°56' E 030°04'4 7.6
2017-Aug-16 15:31N 59°57' E 030°11'0 0.0
2017-Aug-16 01:33N 59°57' E 030°11'0 0.0
2017-Aug-15 03:55N 59°57' E 030°11'0 0.0
2017-Aug-15 03:28N 59°57' E 030°11'0 0.2
2017-Aug-15 03:00N 59°57' E 030°11'4 7.4
2017-Aug-15 02:30N 59°56' E 030°04'5 9.7
2017-Aug-15 02:00N 59°56' E 029°54'510.4
2017-Aug-15 01:31N 59°59' E 029°45'5 9.0
2017-Aug-15 01:00N 60°00' E 029°36'611.5
2017-Aug-15 00:30N 60°02' E 029°25'612.2
2017-Aug-15 00:00N 60°02' E 029°13'713.6
2017-Aug-14 23:31N 60°02' E 028°59'713.7
2017-Aug-14 23:00N 60°02' E 028°46'3186.6
2017-Aug-14 23:00N 60°00' E 028°42'511.2 270 / 161022.010.8 17.013.918.0
2017-Aug-14 22:30N 60°02' E 028°32'713.4
2017-Aug-14 22:00N 60°05' E 028°20'714.8
2017-Aug-14 21:30N 60°08' E 028°07'713.8
2017-Aug-14 21:00N 60°10' E 027°53'612.1
2017-Aug-14 20:30N 60°09' E 027°41'815.3
2017-Aug-14 19:59N 60°05' E 027°27'612.5
2017-Aug-14 19:30N 60°02' E 027°17'612.9
2017-Aug-14 19:00N 59°59' E 027°06'713.2
2017-Aug-14 18:30N 59°58' E 026°53'713.8
2017-Aug-14 18:00N 59°59' E 026°39'713.8
2017-Aug-14 17:30N 59°58' E 026°26'713.9
2017-Aug-14 17:00N 59°56' E 026°12'2108.6
2017-Aug-14 17:00N 59°54' E 026°12'613.3 260 / 191022.010.8 22.913.118.0
2017-Aug-14 16:31N 59°54' E 025°59'714.0
2017-Aug-14 16:01N 59°52' E 025°46'4241.4
2017-Aug-14 16:00N 59°48' E 025°42'613.2 260 / 191022.010.8 22.913.118.0
2017-Aug-14 15:30N 59°50' E 025°30'917.6
2017-Aug-14 15:00N 59°48' E 025°13'917.0
2017-Aug-14 14:30N 59°45' E 024°57'816.6
2017-Aug-14 14:00N 59°40' E 024°44'713.3
2017-Aug-14 13:31N 59°33' E 024°43'611.9
2017-Aug-14 13:00N 59°27' E 024°46'0 0.3
2017-Aug-14 12:28N 59°27' E 024°46'0 0.0
2017-Aug-14 11:58N 59°27' E 024°46'0 0.0
2017-Aug-14 11:28N 59°27' E 024°46'0 0.0
2017-Aug-14 10:58N 59°27' E 024°46'0 0.0
2017-Aug-14 10:28N 59°27' E 024°46'0 0.0
2017-Aug-14 09:58N 59°27' E 024°46'0 0.0
2017-Aug-14 09:28N 59°27' E 024°46'0 0.0
2017-Aug-14 08:58N 59°27' E 024°46'0 0.0
2017-Aug-14 08:28N 59°27' E 024°46'0 0.0
2017-Aug-14 07:58N 59°27' E 024°46'0 0.0
2017-Aug-14 07:28N 59°27' E 024°46'0 0.0
2017-Aug-14 06:58N 59°27' E 024°46'0 0.0
2017-Aug-14 06:28N 59°27' E 024°46'0 0.0
2017-Aug-14 05:58N 59°27' E 024°46'0 0.0
2017-Aug-14 05:28N 59°27' E 024°46'0 0.0
2017-Aug-14 04:55N 59°27' E 024°46'0 0.0
2017-Aug-14 04:29N 59°27' E 024°46'3 6.1
2017-Aug-14 04:00N 59°30' E 024°44'612.7
2017-Aug-14 03:31N 59°30' E 024°32'713.2
2017-Aug-14 03:00N 59°30' E 024°19'816.1
2017-Aug-14 02:31N 59°28' E 024°03'816.6
2017-Aug-14 02:01N 59°27' E 023°47'816.7
2017-Aug-14 01:30N 59°25' E 023°31'917.1
2017-Aug-14 01:01N 59°23' E 023°15'917.1
2017-Aug-14 00:31N 59°21' E 022°59'917.3
2017-Aug-14 00:01N 59°18' E 022°43'3201.6
2017-Aug-14 00:00N 59°18' E 022°36'611.4 350 / 221012.010.8 15.410.818.0
2017-Aug-13 23:31N 59°16' E 022°26'917.4
2017-Aug-13 23:01N 59°13' E 022°10'2135.3
2017-Aug-13 23:00N 59°12' E 022°06'713.5 340 / 271012.010.8 15.510.518.0
2017-Aug-13 22:31N 59°09' E 021°55'29018.8
2017-Aug-13 07:06N 55°40' E 015°42'219.9
2017-Aug-13 07:00N 55°39' E 015°39'1020.0
2017-Aug-13 06:30N 55°36' E 015°22'1019.8
2017-Aug-13 06:00N 55°32' E 015°06'1019.6
2017-Aug-13 05:30N 55°29' E 014°50'1019.5
2017-Aug-13 05:00N 55°23' E 014°36'1019.5
2017-Aug-13 04:30N 55°15' E 014°27'1019.5
2017-Aug-13 04:00N 55°07' E 014°16'1019.3
2017-Aug-13 03:30N 55°00' E 014°04'1020.0
2017-Aug-13 03:00N 54°57' E 013°48'1020.1
2017-Aug-13 02:30N 54°54' E 013°31'6618.4
2017-Aug-12 22:54N 54°24' E 011°49'820.0
2017-Aug-12 22:30N 54°27' E 011°36'1020.2
2017-Aug-12 22:00N 54°32' E 011°21'1019.6
2017-Aug-12 21:30N 54°35' E 011°05'1019.6
2017-Aug-12 21:00N 54°34' E 010°48'1019.5
2017-Aug-12 20:30N 54°32' E 010°32'10 0.7
2017-Aug-12 07:05N 54°29' E 010°16'1 9.6
2017-Aug-12 06:56N 54°30' E 010°18'511.7
2017-Aug-12 06:30N 54°32' E 010°26'612.6
2017-Aug-12 06:00N 54°35' E 010°36'714.5
2017-Aug-12 05:30N 54°39' E 010°46'815.0
2017-Aug-12 05:00N 54°47' E 010°49'816.1
2017-Aug-12 04:30N 54°54' E 010°54'816.1
2017-Aug-12 04:00N 55°01' E 011°01'917.0
2017-Aug-12 03:30N 55°09' E 011°03'815.6
2017-Aug-12 03:00N 55°17' E 011°03'917.0
2017-Aug-12 02:28N 55°26' E 010°58'919.5
2017-Aug-12 02:00N 55°34' E 010°50'1019.1
2017-Aug-12 01:30N 55°43' E 010°47'917.5
2017-Aug-12 00:59N 55°52' E 010°52'918.5
2017-Aug-12 00:30N 55°59' E 011°01'1218.4
2017-Aug-11 23:53N 56°08' E 011°14'719.7
2017-Aug-11 23:30N 56°08' E 011°28'1019.4
2017-Aug-11 23:00N 56°08' E 011°45'1220.0
2017-Aug-11 22:25N 56°12' E 012°05'819.4
2017-Aug-11 22:00N 56°12' E 012°20'917.5
2017-Aug-11 21:30N 56°07' E 012°33'917.2
2017-Aug-11 21:00N 56°00' E 012°42'815.1
2017-Aug-11 20:31N 55°53' E 012°44'816.1
2017-Aug-11 20:01N 55°45' E 012°41'3 1.2
2017-Aug-11 17:50N 55°43' E 012°38'0 0.0
2017-Aug-11 17:20N 55°43' E 012°38'0 0.0
2017-Aug-11 12:08N 55°43' E 012°38'0 0.0
2017-Aug-11 11:41N 55°43' E 012°38'0 0.0
2017-Aug-11 07:05N 55°43' E 012°38'0 0.0
2017-Aug-11 06:26N 55°43' E 012°38'0 0.0
2017-Aug-11 05:56N 55°43' E 012°38'0 0.0
2017-Aug-11 05:26N 55°43' E 012°38'0 0.0
2017-Aug-11 04:56N 55°43' E 012°38'0 0.0
2017-Aug-11 04:29N 55°43' E 012°38'0 0.2
2017-Aug-11 04:00N 55°43' E 012°38'4 8.0
2017-Aug-11 03:30N 55°46' E 012°42'5 9.6
2017-Aug-11 03:00N 55°51' E 012°41'5 9.2
2017-Aug-11 02:30N 55°55' E 012°38'713.2
2017-Aug-11 02:01N 56°02' E 012°39'714.2
2017-Aug-11 01:30N 56°07' E 012°31'815.3
2017-Aug-11 01:01N 56°12' E 012°20'815.0
2017-Aug-11 00:30N 56°16' E 012°08'714.7
2017-Aug-11 00:00N 56°22' E 012°02'2170.4
2017-Aug-11 00:00N 56°24' E 012°00'1514.8 290 / 101016.010.8 16.312.118.0
2017-Aug-10 23:00N 56°39' E 011°56'816.6
2017-Aug-10 22:30N 56°46' E 011°51'1219.2
2017-Aug-10 21:51N 56°58' E 011°44'720.3
2017-Aug-10 21:30N 57°05' E 011°39'1020.0
2017-Aug-10 21:01N 57°14' E 011°32'1019.7
2017-Aug-10 20:29N 57°24' E 011°25'919.6
2017-Aug-10 20:01N 57°32' E 011°17'1120.3
2017-Aug-10 19:29N 57°39' E 011°02'919.2
2017-Aug-10 19:01N 57°47' E 010°53'1020.0
2017-Aug-10 18:30N 57°50' E 010°35'1020.2
2017-Aug-10 18:00N 57°50' E 010°16'1020.2
2017-Aug-10 17:31N 57°51' E 009°58'1020.7
2017-Aug-10 17:01N 57°52' E 009°38'1221.0
2017-Aug-10 16:27N 57°53' E 009°16'1021.1
2017-Aug-10 15:59N 57°54' E 008°58'1020.7
2017-Aug-10 15:30N 57°56' E 008°40'1020.1
2017-Aug-10 15:00N 57°60' E 008°22'918.0
2017-Aug-10 14:31N 58°03' E 008°06'611.4
2017-Aug-10 13:58N 58°08' E 007°59'  
Track history (hours):
 
Tides and Currents Weather Stations Pressure Air Temp Water Temp Dewpoint Dewpoint Depression Visibility Wind Speed Wind Dir Waves Ship Positions

Zuiderdam (Netherlands)

Operator: Holland America Line

Last reported at 2017-Aug-20 13:31 UTC. Time now 2017-Aug-20 13:39 UTC.
Position N 55°58' E 016°12'.

Type: Passenger vessel. MMSI: 245304000.

Date/timePositionNaut miles runAvg speedWind from/ knotsBaromVisibWave heightAir tempDewpointWater temp
2017-Aug-20 13:31N 55°58' E 016°12'714.1
2017-Aug-20 13:00N 56°02' E 016°23'714.1
2017-Aug-20 12:31N 56°06' E 016°34'612.4
2017-Aug-20 12:00N 56°09' E 016°43'714.3
2017-Aug-20 11:30N 56°15' E 016°50'815.2
2017-Aug-20 11:00N 56°23' E 016°54'815.2
2017-Aug-20 10:30N 56°30' E 016°59'13514.2
2017-Aug-20 01:00N 58°30' E 018°54'1919.1 230 / 201010.010.8 16.712.617.0
2017-Aug-20 00:00N 58°48' E 019°06'1015.8 220 / 201009.010.8 17.112.617.0
2017-Aug-19 23:21N 58°56' E 019°18'514.3
2017-Aug-19 23:00N 59°00' E 019°23'714.2
2017-Aug-19 22:31N 59°06' E 019°30'714.0
2017-Aug-19 22:01N 59°12' E 019°37'137.8
2017-Aug-19 22:00N 59°12' E 019°36'815.6 260 / 231008.010.8 17.211.517.0
2017-Aug-19 21:30N 59°18' E 019°44'714.1
2017-Aug-19 21:00N 59°24' E 019°51'714.1
2017-Aug-19 20:31N 59°31' E 019°57'714.2
2017-Aug-19 20:00N 59°38' E 019°56'816.8
2017-Aug-19 19:31N 59°44' E 019°45'713.1
2017-Aug-19 19:00N 59°48' E 019°34'714.2
2017-Aug-19 18:30N 59°46' E 019°21'816.3
2017-Aug-19 18:01N 59°43' E 019°06'714.0
2017-Aug-19 17:31N 59°39' E 018°54'611.7
2017-Aug-19 17:01N 59°36' E 018°45'611.5
2017-Aug-19 16:31N 59°33' E 018°35'510.2
2017-Aug-19 16:01N 59°30' E 018°28'510.1
2017-Aug-19 15:30N 59°25' E 018°25'3 6.0
2017-Aug-19 15:00N 59°22' E 018°23'9 9.1
2017-Aug-19 14:01N 59°19' E 018°06'0 0.0
2017-Aug-19 02:28N 59°19' E 018°06'0 0.0
2017-Aug-18 07:10N 59°19' E 018°06'0 0.0
2017-Aug-18 06:46N 59°19' E 018°06'0 0.0
2017-Aug-18 06:28N 59°19' E 018°06'0 0.4
2017-Aug-18 06:00N 59°19' E 018°07'4 7.4
2017-Aug-18 05:31N 59°21' E 018°13'510.1
2017-Aug-18 05:00N 59°22' E 018°23'107428.9
2017-Aug-18 05:00N 59°12' E 018°24'1224.5 160 / 151013.010.8 16.515.419.0
2017-Aug-18 04:30N 59°24' E 018°26'4 7.4
2017-Aug-18 04:01N 59°28' E 018°26'510.5
2017-Aug-18 03:30N 59°32' E 018°32'5 9.7
2017-Aug-18 03:00N 59°35' E 018°40'5382.9
2017-Aug-18 03:00N 59°30' E 018°36'1021.4 160 / 151014.010.8 16.515.419.0
2017-Aug-18 02:30N 59°37' E 018°50'5 9.4
2017-Aug-18 02:00N 59°40' E 018°57'816.2
2017-Aug-18 01:30N 59°44' E 019°12'713.7
2017-Aug-18 01:00N 59°47' E 019°24'815.6
2017-Aug-18 00:30N 59°50' E 019°38'815.9
2017-Aug-18 00:00N 59°45' E 019°51'3223.1
2017-Aug-18 00:00N 59°42' E 019°54'611.4 220 / 131014.010.8 17.115.118.0
2017-Aug-17 23:30N 59°39' E 020°03'816.8
2017-Aug-17 23:00N 59°37' E 020°19'917.8
2017-Aug-17 22:30N 59°36' E 020°36'917.9
2017-Aug-17 22:00N 59°34' E 020°54'917.9
2017-Aug-17 21:31N 59°32' E 021°11'1019.9
2017-Aug-17 21:00N 59°30' E 021°30'0 9.5
2017-Aug-17 21:00N 59°30' E 021°30'816.6 240 / 91015.010.8 17.215.218.0
2017-Aug-17 20:30N 59°28' E 021°46'918.8
2017-Aug-17 20:00N 59°27' E 022°04'917.0
2017-Aug-17 19:30N 59°27' E 022°21'917.2
2017-Aug-17 19:00N 59°31' E 022°35'1020.0
2017-Aug-17 18:30N 59°34' E 022°55'815.8
2017-Aug-17 18:00N 59°36' E 023°10'1019.2
2017-Aug-17 17:30N 59°38' E 023°28'1019.1
2017-Aug-17 17:00N 59°41' E 023°46'816.0
2017-Aug-17 16:30N 59°43' E 024°01'918.9
2017-Aug-17 16:01N 59°47' E 024°19'917.2
2017-Aug-17 15:31N 59°50' E 024°35'918.1
2017-Aug-17 15:00N 59°57' E 024°47'713.9
2017-Aug-17 14:31N 60°03' E 024°54'612.3
2017-Aug-17 14:00N 60°09' E 024°54'0 0.1
2017-Aug-17 10:26N 60°09' E 024°55'0 0.0
2017-Aug-17 09:49N 60°09' E 024°55'0 0.0
2017-Aug-17 09:25N 60°09' E 024°55'0 0.0
2017-Aug-17 09:00N 60°09' E 024°55'0 0.0
2017-Aug-17 08:30N 60°09' E 024°55'0 0.0
2017-Aug-17 08:00N 60°09' E 024°55'0 0.0
2017-Aug-17 07:25N 60°09' E 024°55'0 0.0
2017-Aug-17 07:00N 60°09' E 024°55'0 0.0
2017-Aug-17 06:30N 60°09' E 024°55'0 0.0
2017-Aug-17 06:00N 60°09' E 024°55'0 0.0
2017-Aug-17 05:30N 60°09' E 024°55'0 0.0
2017-Aug-17 05:00N 60°09' E 024°55'0 0.0
2017-Aug-17 04:30N 60°09' E 024°55'0 0.0
2017-Aug-17 04:00N 60°09' E 024°55'2 4.0
2017-Aug-17 03:31N 60°07' E 024°54'612.9
2017-Aug-17 03:00N 60°01' E 024°56'713.8
2017-Aug-17 02:30N 59°57' E 025°08'713.7
2017-Aug-17 02:01N 59°54' E 025°20'713.9
2017-Aug-17 01:31N 59°55' E 025°34'714.0
2017-Aug-17 01:01N 59°56' E 025°48'714.0
2017-Aug-17 00:31N 59°57' E 026°01'714.9
2017-Aug-17 00:00N 59°60' E 026°16'180.3
2017-Aug-17 00:00N 60°00' E 026°18'612.2 150 / 161018.010.8 17.815.618.0
2017-Aug-16 23:31N 60°01' E 026°30'714.5
2017-Aug-16 23:00N 60°01' E 026°44'2122.8
2017-Aug-16 23:00N 60°00' E 026°48'511.3 160 / 131019.010.8 17.915.718.0
2017-Aug-16 22:30N 59°59' E 026°59'714.1
2017-Aug-16 22:01N 60°02' E 027°12'715.0
2017-Aug-16 21:31N 60°06' E 027°24'918.9
2017-Aug-16 21:01N 60°11' E 027°40'1019.1
2017-Aug-16 20:30N 60°11' E 027°60'918.0
2017-Aug-16 20:01N 60°08' E 028°17'917.7
2017-Aug-16 19:31N 60°03' E 028°32'714.6
2017-Aug-16 19:00N 60°03' E 028°46'917.6
2017-Aug-16 18:30N 60°03' E 029°04'917.2
2017-Aug-16 18:00N 60°02' E 029°21'611.7
2017-Aug-16 17:31N 60°01' E 029°33'612.6
2017-Aug-16 17:00N 59°59' E 029°45'5 9.7
2017-Aug-16 16:30N 59°57' E 029°53'510.6
2017-Aug-16 16:00N 59°56' E 030°04'4 7.6
2017-Aug-16 15:31N 59°57' E 030°11'0 0.0
2017-Aug-16 01:33N 59°57' E 030°11'0 0.0
2017-Aug-15 03:55N 59°57' E 030°11'0 0.0
2017-Aug-15 03:28N 59°57' E 030°11'0 0.2
2017-Aug-15 03:00N 59°57' E 030°11'4 7.4
2017-Aug-15 02:30N 59°56' E 030°04'5 9.7
2017-Aug-15 02:00N 59°56' E 029°54'510.4
2017-Aug-15 01:31N 59°59' E 029°45'5 9.0
2017-Aug-15 01:00N 60°00' E 029°36'611.5
2017-Aug-15 00:30N 60°02' E 029°25'612.2
2017-Aug-15 00:00N 60°02' E 029°13'713.6
2017-Aug-14 23:31N 60°02' E 028°59'713.7
2017-Aug-14 23:00N 60°02' E 028°46'3186.6
2017-Aug-14 23:00N 60°00' E 028°42'511.2 270 / 161022.010.8 17.013.918.0
2017-Aug-14 22:30N 60°02' E 028°32'713.4
2017-Aug-14 22:00N 60°05' E 028°20'714.8
2017-Aug-14 21:30N 60°08' E 028°07'713.8
2017-Aug-14 21:00N 60°10' E 027°53'612.1
2017-Aug-14 20:30N 60°09' E 027°41'815.3
2017-Aug-14 19:59N 60°05' E 027°27'612.5
2017-Aug-14 19:30N 60°02' E 027°17'612.9
2017-Aug-14 19:00N 59°59' E 027°06'713.2
2017-Aug-14 18:30N 59°58' E 026°53'713.8
2017-Aug-14 18:00N 59°59' E 026°39'713.8
2017-Aug-14 17:30N 59°58' E 026°26'713.9
2017-Aug-14 17:00N 59°56' E 026°12'2108.6
2017-Aug-14 17:00N 59°54' E 026°12'613.3 260 / 191022.010.8 22.913.118.0
2017-Aug-14 16:31N 59°54' E 025°59'714.0
2017-Aug-14 16:01N 59°52' E 025°46'4241.4
2017-Aug-14 16:00N 59°48' E 025°42'613.2 260 / 191022.010.8 22.913.118.0
2017-Aug-14 15:30N 59°50' E 025°30'917.6
2017-Aug-14 15:00N 59°48' E 025°13'917.0
2017-Aug-14 14:30N 59°45' E 024°57'816.6
2017-Aug-14 14:00N 59°40' E 024°44'713.3
2017-Aug-14 13:31N 59°33' E 024°43'611.9
2017-Aug-14 13:00N 59°27' E 024°46'0 0.3
2017-Aug-14 12:28N 59°27' E 024°46'0 0.0
2017-Aug-14 11:58N 59°27' E 024°46'0 0.0
2017-Aug-14 11:28N 59°27' E 024°46'0 0.0
2017-Aug-14 10:58N 59°27' E 024°46'0 0.0
2017-Aug-14 10:28N 59°27' E 024°46'0 0.0
2017-Aug-14 09:58N 59°27' E 024°46'0 0.0
2017-Aug-14 09:28N 59°27' E 024°46'0 0.0
2017-Aug-14 08:58N 59°27' E 024°46'0 0.0
2017-Aug-14 08:28N 59°27' E 024°46'0 0.0
2017-Aug-14 07:58N 59°27' E 024°46'0 0.0
2017-Aug-14 07:28N 59°27' E 024°46'0 0.0
2017-Aug-14 06:58N 59°27' E 024°46'0 0.0
2017-Aug-14 06:28N 59°27' E 024°46'0 0.0
2017-Aug-14 05:58N 59°27' E 024°46'0 0.0
2017-Aug-14 05:28N 59°27' E 024°46'0 0.0
2017-Aug-14 04:55N 59°27' E 024°46'0 0.0
2017-Aug-14 04:29N 59°27' E 024°46'3 6.1
2017-Aug-14 04:00N 59°30' E 024°44'612.7
2017-Aug-14 03:31N 59°30' E 024°32'713.2
2017-Aug-14 03:00N 59°30' E 024°19'816.1
2017-Aug-14 02:31N 59°28' E 024°03'816.6
2017-Aug-14 02:01N 59°27' E 023°47'816.7
2017-Aug-14 01:30N 59°25' E 023°31'917.1
2017-Aug-14 01:01N 59°23' E 023°15'917.1
2017-Aug-14 00:31N 59°21' E 022°59'917.3
2017-Aug-14 00:01N 59°18' E 022°43'3201.6
2017-Aug-14 00:00N 59°18' E 022°36'611.4 350 / 221012.010.8 15.410.818.0
2017-Aug-13 23:31N 59°16' E 022°26'917.4
2017-Aug-13 23:01N 59°13' E 022°10'2135.3
2017-Aug-13 23:00N 59°12' E 022°06'713.5 340 / 271012.010.8 15.510.518.0
2017-Aug-13 22:31N 59°09' E 021°55'29018.8
2017-Aug-13 07:06N 55°40' E 015°42'219.9
2017-Aug-13 07:00N 55°39' E 015°39'1020.0
2017-Aug-13 06:30N 55°36' E 015°22'1019.8
2017-Aug-13 06:00N 55°32' E 015°06'1019.6
2017-Aug-13 05:30N 55°29' E 014°50'1019.5
2017-Aug-13 05:00N 55°23' E 014°36'1019.5
2017-Aug-13 04:30N 55°15' E 014°27'1019.5
2017-Aug-13 04:00N 55°07' E 014°16'1019.3
2017-Aug-13 03:30N 55°00' E 014°04'1020.0
2017-Aug-13 03:00N 54°57' E 013°48'1020.1
2017-Aug-13 02:30N 54°54' E 013°31'6618.4
2017-Aug-12 22:54N 54°24' E 011°49'820.0
2017-Aug-12 22:30N 54°27' E 011°36'1020.2
2017-Aug-12 22:00N 54°32' E 011°21'1019.6
2017-Aug-12 21:30N 54°35' E 011°05'1019.6
2017-Aug-12 21:00N 54°34' E 010°48'1019.5
2017-Aug-12 20:30N 54°32' E 010°32'10 0.7
2017-Aug-12 07:05N 54°29' E 010°16'1 9.6
2017-Aug-12 06:56N 54°30' E 010°18'511.7
2017-Aug-12 06:30N 54°32' E 010°26'612.6
2017-Aug-12 06:00N 54°35' E 010°36'714.5
2017-Aug-12 05:30N 54°39' E 010°46'815.0
2017-Aug-12 05:00N 54°47' E 010°49'816.1
2017-Aug-12 04:30N 54°54' E 010°54'816.1
2017-Aug-12 04:00N 55°01' E 011°01'917.0
2017-Aug-12 03:30N 55°09' E 011°03'815.6
2017-Aug-12 03:00N 55°17' E 011°03'917.0
2017-Aug-12 02:28N 55°26' E 010°58'919.5
2017-Aug-12 02:00N 55°34' E 010°50'1019.1
2017-Aug-12 01:30N 55°43' E 010°47'917.5
2017-Aug-12 00:59N 55°52' E 010°52'918.5
2017-Aug-12 00:30N 55°59' E 011°01'1218.4
2017-Aug-11 23:53N 56°08' E 011°14'719.7
2017-Aug-11 23:30N 56°08' E 011°28'1019.4
2017-Aug-11 23:00N 56°08' E 011°45'1220.0
2017-Aug-11 22:25N 56°12' E 012°05'819.4
2017-Aug-11 22:00N 56°12' E 012°20'917.5
2017-Aug-11 21:30N 56°07' E 012°33'917.2
2017-Aug-11 21:00N 56°00' E 012°42'815.1
2017-Aug-11 20:31N 55°53' E 012°44'816.1
2017-Aug-11 20:01N 55°45' E 012°41'3 1.2
2017-Aug-11 17:50N 55°43' E 012°38'0 0.0
2017-Aug-11 17:20N 55°43' E 012°38'0 0.0
2017-Aug-11 12:08N 55°43' E 012°38'0 0.0
2017-Aug-11 11:41N 55°43' E 012°38'0 0.0
2017-Aug-11 07:05N 55°43' E 012°38'0 0.0
2017-Aug-11 06:26N 55°43' E 012°38'0 0.0
2017-Aug-11 05:56N 55°43' E 012°38'0 0.0
2017-Aug-11 05:26N 55°43' E 012°38'0 0.0
2017-Aug-11 04:56N 55°43' E 012°38'0 0.0
2017-Aug-11 04:29N 55°43' E 012°38'0 0.2
2017-Aug-11 04:00N 55°43' E 012°38'4 8.0
2017-Aug-11 03:30N 55°46' E 012°42'5 9.6
2017-Aug-11 03:00N 55°51' E 012°41'5 9.2
2017-Aug-11 02:30N 55°55' E 012°38'713.2
2017-Aug-11 02:01N 56°02' E 012°39'714.2
2017-Aug-11 01:30N 56°07' E 012°31'815.3
2017-Aug-11 01:01N 56°12' E 012°20'815.0
2017-Aug-11 00:30N 56°16' E 012°08'714.7
2017-Aug-11 00:00N 56°22' E 012°02'2170.4
2017-Aug-11 00:00N 56°24' E 012°00'1514.8 290 / 101016.010.8 16.312.118.0
2017-Aug-10 23:00N 56°39' E 011°56'816.6
2017-Aug-10 22:30N 56°46' E 011°51'1219.2
2017-Aug-10 21:51N 56°58' E 011°44'720.3
2017-Aug-10 21:30N 57°05' E 011°39'1020.0
2017-Aug-10 21:01N 57°14' E 011°32'1019.7
2017-Aug-10 20:29N 57°24' E 011°25'919.6
2017-Aug-10 20:01N 57°32' E 011°17'1120.3
2017-Aug-10 19:29N 57°39' E 011°02'919.2
2017-Aug-10 19:01N 57°47' E 010°53'1020.0
2017-Aug-10 18:30N 57°50' E 010°35'1020.2
2017-Aug-10 18:00N 57°50' E 010°16'1020.2
2017-Aug-10 17:31N 57°51' E 009°58'1020.7
2017-Aug-10 17:01N 57°52' E 009°38'1221.0
2017-Aug-10 16:27N 57°53' E 009°16'1021.1
2017-Aug-10 15:59N 57°54' E 008°58'1020.7
2017-Aug-10 15:30N 57°56' E 008°40'1020.1
2017-Aug-10 15:00N 57°60' E 008°22'918.0
2017-Aug-10 14:31N 58°03' E 008°06'611.4
2017-Aug-10 13:58N 58°08' E 007°59'  

Dump ship's entire track history